Noyes, Minnesota
Current Conditions -  °F | °C
As of 4:14 AM on Monday 26 Jan 2015 (Local Time) from KHCO Reporting Station
Overcast Overcast  
Wind Chill: 23°   Ceiling: 4200
Heat Index: 30°   Visibility: 10mi
Dew Point: 27°   Wind: 8mph
Humidity: 86%   Direction: 280°W
Pressure: 29.58"   Gusts: NA
Location:  49°N, 97.21°W
Report Text: KHCO 261014Z AUTO 28007KT 10SM SCT035 BKN042 OVC055 M01/M03 A2958 RMK AO2
Loading
Personal Weather Stations






























Interactive Weather Map New forecast layout! Learn more

10-Day Weather Forecast

Advertisements
Track Severe Weather on mobile